createdAt,value
2019-05-10T00:00:13.661Z,10.93
2019-05-10T00:05:26.505Z,11.15
2019-05-10T00:10:20.370Z,10.87
2019-05-10T00:15:16.449Z,11.09
2019-05-10T00:20:10.510Z,10.97
2019-05-10T00:25:05.464Z,11.15
2019-05-10T00:29:59.513Z,11.06
2019-05-10T00:34:53.474Z,11.29
2019-05-10T00:39:47.431Z,11.12
2019-05-10T00:44:41.543Z,11.12
2019-05-10T00:49:35.497Z,11.15
2019-05-10T00:54:29.464Z,11.08
2019-05-10T00:59:23.423Z,11.10
2019-05-10T01:04:17.396Z,11.04
2019-05-10T01:09:12.879Z,10.97
2019-05-10T01:14:06.845Z,11.29
2019-05-10T01:19:00.833Z,11.31
2019-05-10T01:23:54.790Z,11.25
2019-05-10T01:28:48.817Z,11.16
2019-05-10T01:33:42.736Z,11.08
2019-05-10T01:38:36.802Z,11.25
2019-05-10T01:43:30.761Z,11.25
2019-05-10T01:48:24.771Z,11.05
2019-05-10T01:53:18.717Z,11.32
2019-05-10T01:58:12.676Z,11.11
2019-05-10T02:03:06.637Z,11.12
2019-05-10T02:08:00.635Z,10.86
2019-05-10T02:12:54.584Z,11.00
2019-05-10T02:17:48.548Z,11.26
2019-05-10T02:22:42.564Z,11.20
2019-05-10T02:27:36.499Z,11.20
2019-05-10T02:32:30.447Z,11.13
2019-05-10T02:37:24.430Z,10.97
2019-05-10T02:42:18.422Z,11.23
2019-05-10T02:47:12.485Z,11.15
2019-05-10T02:52:06.450Z,10.98
2019-05-10T02:57:01.012Z,10.98
2019-05-10T03:01:55.489Z,11.01
2019-05-10T03:06:53.313Z,11.04
2019-05-10T03:11:48.267Z,11.18
2019-05-10T03:16:45.029Z,11.08
2019-05-10T03:21:40.901Z,10.90
2019-05-10T03:26:50.294Z,10.97
2019-05-10T03:31:32.143Z,11.15
2019-05-10T03:36:26.102Z,10.85
2019-05-10T03:41:20.246Z,11.04
2019-05-10T03:46:14.183Z,10.80
2019-05-10T03:51:08.324Z,10.37
2019-05-10T03:56:02.509Z,10.21
2019-05-10T04:00:56.442Z,9.90
2019-05-10T04:05:50.473Z,9.96
2019-05-10T04:10:44.732Z,10.08
2019-05-10T04:15:38.691Z,10.19
2019-05-10T04:20:32.669Z,10.23
2019-05-10T04:25:26.649Z,10.06
2019-05-10T04:30:20.704Z,10.08
2019-05-10T04:35:14.793Z,10.11
2019-05-10T04:40:08.944Z,10.24
2019-05-10T04:45:04.524Z,10.18
2019-05-10T04:49:58.489Z,10.25
2019-05-10T04:54:52.464Z,10.38
2019-05-10T04:59:46.434Z,10.20
2019-05-10T05:04:40.437Z,10.36
2019-05-10T05:09:34.491Z,10.26
2019-05-10T05:14:28.460Z,10.13
2019-05-10T05:19:22.458Z,10.16
2019-05-10T05:24:16.826Z,10.20
2019-05-10T05:29:12.337Z,9.98
2019-05-10T05:34:06.427Z,9.92
2019-05-10T05:39:00.468Z,10.16
2019-05-10T05:43:54.526Z,10.24
2019-05-10T05:48:51.414Z,10.25
2019-05-10T05:53:44.783Z,10.47
2019-05-10T05:58:44.688Z,10.20
2019-05-10T06:03:34.799Z,10.28
2019-05-10T06:08:30.276Z,10.50
2019-05-10T06:13:30.454Z,10.49
2019-05-10T06:18:20.257Z,10.66
2019-05-10T06:23:14.250Z,10.54
2019-05-10T06:28:25.153Z,10.86
2019-05-10T06:33:12.533Z,10.99
2019-05-10T06:38:00.057Z,10.93
2019-05-10T06:42:54.164Z,10.99
2019-05-10T06:47:50.344Z,10.96
2019-05-10T06:52:44.125Z,10.85
2019-05-10T06:57:38.073Z,10.95
2019-05-10T07:02:32.610Z,11.12
2019-05-10T07:07:43.197Z,11.12
2019-05-10T07:12:22.717Z,11.36
2019-05-10T07:17:16.675Z,11.15
2019-05-10T07:22:10.765Z,10.91
2019-05-10T07:27:05.784Z,11.22
2019-05-10T07:32:00.100Z,11.63
2019-05-10T07:36:54.067Z,11.20
2019-05-10T07:41:48.024Z,11.56
2019-05-10T07:46:46.591Z,11.62
2019-05-10T07:51:37.920Z,11.51
2019-05-10T07:56:32.041Z,11.33
2019-05-10T08:01:32.475Z,11.38
2019-05-10T08:06:21.985Z,11.39
2019-05-10T08:11:15.972Z,11.48
2019-05-10T08:16:16.786Z,11.60
2019-05-10T08:21:20.990Z,11.98
2019-05-10T08:26:04.458Z,11.82
2019-05-10T08:30:58.998Z,11.95
2019-05-10T08:36:00.803Z,12.14
2019-05-10T08:40:49.225Z,12.19
2019-05-10T08:45:44.866Z,12.30
2019-05-10T08:50:49.308Z,12.39
2019-05-10T08:55:34.961Z,12.56
2019-05-10T09:00:45.142Z,12.58
2019-05-10T09:05:29.001Z,12.58
2019-05-10T09:10:22.050Z,12.21
2019-05-10T09:15:16.269Z,12.62
2019-05-10T09:20:11.981Z,12.71
2019-05-10T09:25:07.004Z,12.89
2019-05-10T09:30:02.978Z,12.93
2019-05-10T09:34:59.845Z,12.52
2019-05-10T09:40:04.038Z,12.17
2019-05-10T09:44:48.974Z,12.11
2019-05-10T09:49:46.907Z,11.93
2019-05-10T09:54:38.826Z,12.16
2019-05-10T09:59:32.800Z,12.13
2019-05-10T10:04:28.160Z,12.80
2019-05-10T10:09:24.528Z,13.04
2019-05-10T10:14:18.206Z,12.81
2019-05-10T10:19:12.175Z,12.54
2019-05-10T10:24:15.513Z,12.44
2019-05-10T10:29:02.311Z,12.59
2019-05-10T10:33:59.462Z,13.01
2019-05-10T10:38:52.217Z,13.91
2019-05-10T10:43:48.445Z,14.27
2019-05-10T10:48:43.498Z,13.71
2019-05-10T10:53:38.281Z,13.57
2019-05-10T10:58:32.324Z,13.66
2019-05-10T11:03:30.356Z,13.16
2019-05-10T11:08:22.277Z,13.24
2019-05-10T11:13:20.501Z,12.87
2019-05-10T11:18:12.131Z,13.39
2019-05-10T11:23:06.102Z,13.54
2019-05-10T11:28:01.750Z,13.33
2019-05-10T11:32:56.118Z,13.22
2019-05-10T11:37:50.840Z,13.95
2019-05-10T11:42:47.441Z,14.96
2019-05-10T11:47:41.131Z,14.98
2019-05-10T11:52:36.608Z,16.16
2019-05-10T11:57:32.898Z,16.26
2019-05-10T12:02:37.921Z,16.55
2019-05-10T12:07:27.380Z,16.78
2019-05-10T12:12:30.523Z,16.92
2019-05-10T12:17:14.565Z,17.36
2019-05-10T12:22:08.596Z,18.33
2019-05-10T12:27:25.728Z,23.12
2019-05-10T12:31:58.668Z,26.90
2019-05-10T12:36:52.757Z,34.25
2019-05-10T12:41:49.948Z,31.35
2019-05-10T12:46:44.452Z,29.53
2019-05-10T12:51:40.897Z,27.46
2019-05-10T12:56:34.940Z,29.09
2019-05-10T13:01:31.789Z,36.70
2019-05-10T13:06:26.338Z,41.87
2019-05-10T13:11:25.329Z,44.92
2019-05-10T13:16:16.247Z,42.96
2019-05-10T13:21:19.492Z,45.45
2019-05-10T13:26:06.177Z,45.56
2019-05-10T13:31:05.691Z,44.44
2019-05-10T13:35:57.047Z,45.72
2019-05-10T13:40:52.024Z,45.10
2019-05-10T13:45:46.101Z,45.82
2019-05-10T13:50:40.080Z,47.09
2019-05-10T13:55:34.046Z,46.45
2019-05-10T14:00:34.154Z,45.37
2019-05-10T14:05:24.210Z,45.82
2019-05-10T14:10:23.628Z,43.66
2019-05-10T14:15:14.565Z,42.74
2019-05-10T14:20:19.571Z,43.73
2019-05-10T14:25:05.614Z,43.65
2019-05-10T14:29:59.623Z,42.13
2019-05-10T14:34:53.642Z,39.76
2019-05-10T14:39:47.631Z,29.63
2019-05-10T14:44:41.647Z,25.19
2019-05-10T14:49:35.668Z,22.75
2019-05-10T14:54:42.722Z,22.82
2019-05-10T14:59:25.865Z,21.32
2019-05-10T15:04:43.691Z,27.20
2019-05-10T15:09:21.722Z,32.02
2019-05-10T15:14:11.883Z,32.81
2019-05-10T15:19:05.995Z,31.22
2019-05-10T15:24:00.828Z,27.77
2019-05-10T15:28:55.941Z,32.24
2019-05-10T15:33:49.923Z,32.44
2019-05-10T15:38:50.118Z,31.78
2019-05-10T15:43:40.055Z,31.64
2019-05-10T15:48:36.646Z,29.36
2019-05-10T15:53:30.101Z,26.02
2019-05-10T15:58:24.065Z,23.01
2019-05-10T16:03:18.265Z,21.73
2019-05-10T16:08:13.767Z,20.65
2019-05-10T16:13:07.896Z,19.66
2019-05-10T16:18:02.029Z,19.13
2019-05-10T16:22:56.055Z,18.56
2019-05-10T16:27:50.060Z,18.22
2019-05-10T16:32:45.950Z,16.78
2019-05-10T16:37:39.940Z,12.23
2019-05-10T16:42:35.810Z,12.03
2019-05-10T16:47:29.824Z,13.03
2019-05-10T16:52:26.169Z,13.63
2019-05-10T16:57:19.670Z,14.69
2019-05-10T17:02:13.747Z,14.98
2019-05-10T17:07:12.865Z,14.82
2019-05-10T17:12:03.920Z,14.48
2019-05-10T17:16:59.797Z,14.26
2019-05-10T17:21:53.870Z,14.19
2019-05-10T17:26:47.841Z,14.15
2019-05-10T17:31:45.775Z,13.97
2019-05-10T17:36:37.711Z,13.65
2019-05-10T17:41:31.817Z,13.66
2019-05-10T17:46:25.869Z,13.68
2019-05-10T17:51:19.978Z,13.55
2019-05-10T17:56:13.950Z,13.38
2019-05-10T18:01:08.065Z,13.34
2019-05-10T18:06:02.728Z,13.24
2019-05-10T18:11:03.385Z,13.14
2019-05-10T18:15:52.710Z,13.04
2019-05-10T18:20:46.675Z,12.88
2019-05-10T18:25:40.724Z,12.70
2019-05-10T18:30:34.689Z,12.62
2019-05-10T18:35:28.673Z,12.60
2019-05-10T18:40:25.152Z,12.59
2019-05-10T18:45:23.237Z,12.33
2019-05-10T18:50:14.771Z,12.24
2019-05-10T18:55:08.938Z,12.10
2019-05-10T19:00:05.093Z,11.98
2019-05-10T19:04:59.233Z,11.87
2019-05-10T19:09:53.367Z,11.71
2019-05-10T19:14:47.347Z,11.63
2019-05-10T19:19:42.237Z,11.55
2019-05-10T19:24:36.602Z,11.47
2019-05-10T19:29:30.578Z,11.38
2019-05-10T19:34:24.663Z,11.36
2019-05-10T19:39:18.671Z,11.33
2019-05-10T19:44:12.668Z,11.40
2019-05-10T19:49:12.935Z,11.32
2019-05-10T19:54:03.029Z,11.30
2019-05-10T19:58:57.195Z,11.36
2019-05-10T20:03:51.264Z,11.35
2019-05-10T20:08:45.288Z,11.40
2019-05-10T20:13:39.371Z,11.35
2019-05-10T20:18:33.410Z,11.35
2019-05-10T20:23:27.394Z,11.33
2019-05-10T20:28:21.875Z,11.34
2019-05-10T20:33:15.881Z,11.23
2019-05-10T20:38:09.988Z,11.15
2019-05-10T20:43:04.112Z,11.22
2019-05-10T20:47:58.211Z,11.26
2019-05-10T20:52:52.173Z,11.33
2019-05-10T20:57:46.189Z,11.25
2019-05-10T21:02:40.262Z,11.34
2019-05-10T21:07:34.532Z,11.32
2019-05-10T21:12:28.529Z,11.27
2019-05-10T21:17:22.504Z,11.24
2019-05-10T21:22:16.619Z,11.26
2019-05-10T21:27:10.597Z,11.23
2019-05-10T21:32:04.695Z,11.20
2019-05-10T21:36:58.706Z,11.19
2019-05-10T21:41:52.916Z,11.31
2019-05-10T21:46:46.908Z,11.07
2019-05-10T21:51:40.903Z,11.18
2019-05-10T21:56:35.858Z,11.21
2019-05-10T22:01:30.746Z,11.16
2019-05-10T22:06:24.729Z,11.08
2019-05-10T22:11:18.735Z,11.05
2019-05-10T22:16:12.812Z,11.07
2019-05-10T22:21:06.919Z,11.03
2019-05-10T22:26:00.902Z,10.95
2019-05-10T22:30:54.858Z,11.01
2019-05-10T22:35:49.001Z,10.96
2019-05-10T22:40:43.158Z,11.00
2019-05-10T22:45:37.099Z,11.07
2019-05-10T22:50:31.117Z,11.20
2019-05-10T22:55:25.047Z,11.21
2019-05-10T23:00:19.907Z,11.17
2019-05-10T23:05:14.101Z,11.21
2019-05-10T23:10:08.397Z,11.29
2019-05-10T23:15:04.440Z,11.32
2019-05-10T23:19:58.545Z,11.32
2019-05-10T23:24:52.511Z,11.32
2019-05-10T23:29:46.575Z,11.19
2019-05-10T23:34:40.531Z,11.19
2019-05-10T23:39:40.970Z,11.29
2019-05-10T23:44:30.494Z,11.33
2019-05-10T23:49:24.515Z,11.35
2019-05-10T23:54:18.492Z,11.42
2019-05-10T23:59:12.561Z,11.39
